This is the latest recevied weather packets stored in our database for station/object KF7PIZ. If no packets are shown the sender has not sent any weather packets the latest 10 day(s).
| Time | Temp. | Humidity | Pressure | Rain* | Wind** | Luminosity | Snow |
|---|---|---|---|---|---|---|---|
| 1777497893 | 21.67° C | 22% | 1018.6 hPa | 0 mm | - | 747 W/m² | - |
| 1777497588 | 23.33° C | 21% | 1018.6 hPa | 0 mm | - | 698 W/m² | - |
| 1777497285 | 24.44° C | 23% | 1018.8 hPa | 0 mm | - | 610 W/m² | - |
| 1777496981 | 24.44° C | 20% | 1018.9 hPa | 0 mm | - | 576 W/m² | - |
| 1777496679 | 23.89° C | 23% | 1018.6 hPa | 0 mm | - | 202 W/m² | - |
| 1777496375 | 23.33° C | 22% | 1018.7 hPa | 0 mm | - | 755 W/m² | - |
| 1777496072 | 23.33° C | 23% | 1018.8 hPa | 0 mm | - | 742 W/m² | - |
| 1777495767 | 24.44° C | 25% | 1018.8 hPa | 0 mm | - | 711 W/m² | - |
| 1777495464 | 23.33° C | 21% | 1019 hPa | 0 mm | - | 447 W/m² | - |
| 1777495160 | 24.44° C | 27% | 1018.8 hPa | 0 mm | - | 324 W/m² | - |
| 1777494857 | 23.89° C | 22% | 1019 hPa | 0 mm | - | 776 W/m² | - |
| 1777494554 | 25° C | 21% | 1019.4 hPa | 0 mm | - | 738 W/m² | - |
| 1777494252 | 23.89° C | 26% | 1019.1 hPa | 0 mm | - | 718 W/m² | - |
| 1777493949 | 24.44° C | 25% | 1019.3 hPa | 0 mm | - | 742 W/m² | - |
| 1777493647 | 23.89° C | 25% | 1019 hPa | 0 mm | - | 737 W/m² | - |
| 1777493343 | 23.33° C | 27% | 1019.3 hPa | 0 mm | - | 693 W/m² | - |
| 1777493040 | 23.33° C | 24% | 1019.4 hPa | 0 mm | - | 690 W/m² | - |
| 1777492737 | 22.78° C | 26% | 1019.5 hPa | 0 mm | - | 695 W/m² | - |
| 1777492437 | 22.22° C | 28% | 1019.5 hPa | 0 mm | - | 707 W/m² | - |
| 1777492135 | 22.22° C | 25% | 1019.5 hPa | 0 mm | - | 783 W/m² | - |
| 1777491831 | 22.22° C | 23% | 1019.8 hPa | 0 mm | - | 796 W/m² | - |
| 1777491528 | 22.22° C | 24% | 1019.7 hPa | 0 mm | - | 794 W/m² | - |
| 1777491226 | 22.78° C | 24% | 1019.9 hPa | 0 mm | - | 765 W/m² | - |
| 1777490921 | 21.67° C | 30% | 1019.7 hPa | 0 mm | - | 783 W/m² | - |
| 1777490617 | 21.11° C | 28% | 1019.8 hPa | 0 mm | - | 798 W/m² | - |
* Rain latest hour (hover to see other rain measurements)
** Current wind speed in m/s (hover to see current wind gust speed)